메인 페이지
METAR-TAF:

METAR-TAF

공항 :

요하네스버그, 남아프리카공화국

OR 탐보 국제공항

위도: 26-08S, 경도: 028-14E, 고도: 1694m

현재 날씨관측

예보는 43분 전, 09:00시(UTC)에 발표되었습니다.
여러 방향의 바람 5kt
온도 23°C
습도 53%
기압 1025 hPa
시정 10km 이상
고도 3400ft 상공 구름 보통

METAR: FAOR 180900Z VRB05KT 9999 SCT034 23/13 Q1025 NOSIG

시각: 11:43 (09:43 UTC)

예보

예보는 58분 전, 08:45시(UTC)에 발표되었습니다.
예보 대상 시간: 18일 06시부터 19일 12시까지 (UTC)
여러 방향의 바람 3kt
시정 10km 이상
고도 3000ft 상공 구름 많음
전환 중
18일 16시부터 18일 18시까지 (UTC)
동북동13kt
시정 10km 이상
1500m 미만 상공 구름 및 적란운 없음
전환 중
19일 04시부터 19일 06시까지 (UTC)
북서8kt

TAF: FAOR 180845Z 1806/1912 VRB03KT 9999 BKN030 BECMG 1816/1818 06013KT CAVOK BECMG 1904/1906 32008KT TX29/1814Z TN17/1903Z

4,000개 이상의 공항 관측 자료 및 예보 (METAR 및 TAF 보고).

지도상에서 검색 가능한 기상관측소가 노란 점과 빨간 점으로 표시되어 있습니다.

기상관측소 명을 보려면 표시 위로 마우스를 이동하세요.

날씨 관측과 예보를 보려면 클릭하세요.

지도 변경 : 확대하려면 엑스 표시가 있는 녹색 버튼, 축소하려면 빼기 표시가 있는 녹색 버튼, 다음 페이지의 지도를 보려면 녹색 화살표를 클릭하세요.


METAR-TAF: